Time;durP1;ratioP1;P1;durP2;ratioP2;P2;SDS_P1;SDS_P2;PMS_P1;PMS_P2;Temp;Humidity;BMP_temperature;BMP_pressure;BME280_temperature;BME280_humidity;BME280_pressure;Samples;Min_cycle;Max_cycle;Signal;HPM_P1;HPM_P2
2022/09/25 00:01:56;;;;;;;;;;;;;;;;;;2215141;59;1203;-70
2022/09/25 00:04:30;;;;;;;;;;;;;;;;;;2215362;67;1096;-70
2022/09/25 00:07:03;;;;;;;;;;;;;;;;;;2212219;67;1214;-70
2022/09/25 00:09:36;;;;;;;;;;;;;;;;;;2215299;59;1602;-70
2022/09/25 04:22:27;;;;;;;;;;;;;;;;;;2304095;53;1769;-71
2022/09/25 04:25:01;;;;;;;;;;;;;;;;;;2214369;59;1156;-70
2022/09/25 04:27:35;;;;;;;;;;;;;;;;;;2214043;67;1197;-72
2022/09/25 04:30:09;;;;;;;;;;;;;;;;;;2214340;67;1252;-71
2022/09/25 04:46:19;;;;;;;;;;;;;;;;;;2369271;53;1671;-74
2022/09/25 04:48:52;;;;;;;;;;;;;;;;;;2216549;58;1096;-73
2022/09/25 04:51:25;;;;;;;;;;;;;;;;;;2216781;58;1214;-73
2022/09/25 04:53:59;;;;;;;;;;;;;;;;;;2216758;66;1927;-73
2022/09/25 04:56:32;;;;;;;;;;;;;;;;;;2217509;59;1212;-73
2022/09/25 04:59:05;;;;;;;;;;;;;;;;;;2216186;66;1181;-73
2022/09/25 05:01:41;;;;;;;;;;;;;;;;;;2216592;59;1195;-73
2022/09/25 05:04:15;;;;;;;;;;;;;;;;;;2216559;59;1176;-73
2022/09/25 05:06:48;;;;;;;;;;;;;;;;;;2215814;59;1282;-73
2022/09/25 05:09:21;;;;;;;;;;;;;;;;;;2216293;58;1191;-73
2022/09/25 05:11:54;;;;;;;;;;;;;;;;;;2215725;66;1147;-73
2022/09/25 05:14:29;;;;;;;;;;;;;;;;;;2215732;66;1979;-73
2022/09/25 05:17:10;;;;;;;;;;;;;;;;;;2216113;59;1522;-73
2022/09/25 05:19:43;;;;;;;;;;;;;;;;;;2215943;66;1153;-73
2022/09/25 05:22:16;;;;;;;;;;;;;;;;;;2215294;66;1295;-73
2022/09/25 05:24:51;;;;;;;;;;;;;;;;;;2211248;67;1414;-73
2022/09/25 05:27:24;;;;;;;;;;;;;;;;;;2215618;66;1245;-73
2022/09/25 05:29:57;;;;;;;;;;;;;;;;;;2215614;66;1192;-73
2022/09/25 05:32:33;;;;;;;;;;;;;;;;;;2215361;59;1203;-73
2022/09/25 05:35:07;;;;;;;;;;;;;;;;;;2215524;66;2019;-73
2022/09/25 05:37:40;;;;;;;;;;;;;;;;;;2215699;58;1565;-73
2022/09/25 05:40:14;;;;;;;;;;;;;;;;;;2216355;66;1242;-73
2022/09/25 05:42:47;;;;;;;;;;;;;;;;;;2215507;59;1240;-73
2022/09/25 05:45:22;;;;;;;;;;;;;;;;;;2216792;59;1141;-73
2022/09/25 05:48:04;;;;;;;;;;;;;;;;;;2212361;59;1995;-73
2022/09/25 05:50:38;;;;;;;;;;;;;;;;;;2215892;59;1754;-73
2022/09/25 05:53:11;;;;;;;;;;;;;;;;;;2216264;59;1271;-73
2022/09/25 05:55:44;;;;;;;;;;;;;;;;;;2215623;58;1929;-73
2022/09/25 05:58:17;;;;;;;;;;;;;;;;;;2215882;66;1195;-73
2022/09/25 06:00:50;;;;;;;;;;;;;;;;;;2215801;66;1124;-73
2022/09/25 06:03:28;;;;;;;;;;;;;;;;;;2216523;66;1060;-73
2022/09/25 06:06:02;;;;;;;;;;;;;;;;;;2215915;66;1219;-73
2022/09/25 06:08:35;;;;;;;;;;;;;;;;;;2215947;66;1151;-73
2022/09/25 06:11:10;;;;;;;;;;;;;;;;;;2214841;58;1151;-73
2022/09/25 06:13:45;;;;;;;;;;;;;;;;;;2215530;59;2007;-73
2022/09/25 06:16:18;;;;;;;;;;;;;;;;;;2216715;58;1351;-73
2022/09/25 06:18:54;;;;;;;;;;;;;;;;;;2215663;59;1221;-73
2022/09/25 06:21:27;;;;;;;;;;;;;;;;;;2215825;66;1227;-73
2022/09/25 06:24:00;;;;;;;;;;;;;;;;;;2216081;66;1092;-73
2022/09/25 06:26:35;;;;;;;;;;;;;;;;;;2215255;66;1261;-73
2022/09/25 06:29:08;;;;;;;;;;;;;;;;;;2215409;66;1211;-73
2022/09/25 06:31:41;;;;;;;;;;;;;;;;;;2216436;58;1178;-73
2022/09/25 06:34:18;;;;;;;;;;;;;;;;;;2215954;66;1902;-73
2022/09/25 06:36:51;;;;;;;;;;;;;;;;;;2217203;58;1228;-73
2022/09/25 06:39:24;;;;;;;;;;;;;;;;;;2217048;66;1154;-73
2022/09/25 06:41:57;;;;;;;;;;;;;;;;;;2217388;66;1215;-73
2022/09/25 06:44:30;;;;;;;;;;;;;;;;;;2217174;66;1207;-73
2022/09/25 06:47:03;;;;;;;;;;;;;;;;;;2217112;59;1221;-73
2022/09/25 06:49:39;;;;;;;;;;;;;;;;;;2216692;66;1114;-73
2022/09/25 06:52:12;;;;;;;;;;;;;;;;;;2217120;58;2252;-73
2022/09/25 06:54:45;;;;;;;;;;;;;;;;;;2217212;58;2267;-74
2022/09/25 06:57:19;;;;;;;;;;;;;;;;;;2217224;59;1209;-73
2022/09/25 06:59:52;;;;;;;;;;;;;;;;;;2217305;59;1229;-73
2022/09/25 07:05:17;;;;;;;;;;;;;;;;;;2217040;66;1092;-73
2022/09/25 07:07:50;;;;;;;;;;;;;;;;;;2216276;66;1195;-73
2022/09/25 07:10:23;;;;;;;;;;;;;;;;;;2216821;58;1171;-73
2022/09/25 07:12:57;;;;;;;;;;;;;;;;;;2216123;66;1097;-74
2022/09/25 07:15:30;;;;;;;;;;;;;;;;;;2216929;59;1939;-73
2022/09/25 07:18:03;;;;;;;;;;;;;;;;;;2217320;58;2180;-73
2022/09/25 07:20:39;;;;;;;;;;;;;;;;;;2217340;58;2168;-73
2022/09/25 07:23:12;;;;;;;;;;;;;;;;;;2217247;58;2266;-73
2022/09/25 07:25:45;;;;;;;;;;;;;;;;;;2218645;58;2237;-73
2022/09/25 07:28:19;;;;;;;;;;;;;;;;;;2217810;58;2203;-73
2022/09/25 07:30:52;;;;;;;;;;;;;;;;;;2216554;58;2998;-73
2022/09/25 07:33:25;;;;;;;;;;;;;;;;;;2217369;58;2157;-73
2022/09/25 07:36:02;;;;;;;;;;;;;;;;;;2216119;58;2244;-73
2022/09/25 07:38:35;;;;;;;;;;;;;;;;;;2217046;58;2154;-74
2022/09/25 07:41:10;;;;;;;;;;;;;;;;;;2217353;66;1192;-73
2022/09/25 07:43:43;;;;;;;;;;;;;;;;;;2217072;58;2152;-72
2022/09/25 07:46:16;;;;;;;;;;;;;;;;;;2217206;58;2224;-73
2022/09/25 07:48:50;;;;;;;;;;;;;;;;;;2215721;58;1237;-73
2022/09/25 07:51:26;;;;;;;;;;;;;;;;;;2216823;58;1190;-73
2022/09/25 07:53:59;;;;;;;;;;;;;;;;;;2216977;59;1321;-73
2022/09/25 07:56:33;;;;;;;;;;;;;;;;;;2217339;66;1932;-73
2022/09/25 07:59:06;;;;;;;;;;;;;;;;;;2217410;66;1186;-73
2022/09/25 08:01:39;;;;;;;;;;;;;;;;;;2216894;66;1219;-73
2022/09/25 08:04:12;;;;;;;;;;;;;;;;;;2214697;58;1158;-73
2022/09/25 08:06:48;;;;;;;;;;;;;;;;;;2216314;59;1300;-73
2022/09/25 08:09:21;;;;;;;;;;;;;;;;;;2217061;59;1238;-73
2022/09/25 08:11:55;;;;;;;;;;;;;;;;;;2217792;58;1145;-73
2022/09/25 08:14:28;;;;;;;;;;;;;;;;;;2216409;59;1933;-73
2022/09/25 08:17:01;;;;;;;;;;;;;;;;;;2217433;66;1231;-73
2022/09/25 08:19:34;;;;;;;;;;;;;;;;;;2216816;66;1130;-73
2022/09/25 08:22:10;;;;;;;;;;;;;;;;;;2217305;58;1260;-73
2022/09/25 08:24:43;;;;;;;;;;;;;;;;;;2217372;66;1112;-73
2022/09/25 08:27:16;;;;;;;;;;;;;;;;;;2217315;66;1228;-73
2022/09/25 08:29:50;;;;;;;;;;;;;;;;;;2217232;58;1207;-73
2022/09/25 08:32:23;;;;;;;;;;;;;;;;;;2216276;66;1131;-72
2022/09/25 08:34:56;;;;;;;;;;;;;;;;;;2215624;58;1927;-73
2022/09/25 08:37:32;;;;;;;;;;;;;;;;;;2213792;58;1795;-73
2022/09/25 08:40:06;;;;;;;;;;;;;;;;;;2216903;66;1123;-73
2022/09/25 08:42:39;;;;;;;;;;;;;;;;;;2217099;66;1100;-73
2022/09/25 08:51:04;;;;;;;;;;;;;;;;;;2212376;58;1990;-73
2022/09/25 08:53:43;;;;;;;;;;;;;;;;;;2213858;58;1599;-72
2022/09/25 08:56:18;;;;;;;;;;;;;;;;;;2214478;58;1984;-72
2022/09/25 08:58:53;;;;;;;;;;;;;;;;;;2216070;66;1153;-73
2022/09/25 09:01:27;;;;;;;;;;;;;;;;;;2214182;59;2691;-73
2022/09/25 09:04:05;;;;;;;;;;;;;;;;;;2214292;58;2379;-72
2022/09/25 09:06:39;;;;;;;;;;;;;;;;;;2215123;66;1225;-72
2022/09/25 09:09:17;;;;;;;;;;;;;;;;;;2215292;58;1239;-72
2022/09/25 09:11:55;;;;;;;;;;;;;;;;;;2216308;66;1172;-73
2022/09/25 09:14:31;;;;;;;;;;;;;;;;;;2216144;58;2144;-72
2022/09/25 09:17:06;;;;;;;;;;;;;;;;;;2215169;59;2009;-73
2022/09/25 09:19:40;;;;;;;;;;;;;;;;;;2215534;59;1166;-72
2022/09/25 09:22:14;;;;;;;;;;;;;;;;;;2215651;66;1199;-73
2022/09/25 09:24:55;;;;;;;;;;;;;;;;;;2215742;58;1403;-73
2022/09/25 09:27:35;;;;;;;;;;;;;;;;;;2215264;59;1646;-73
2022/09/25 09:30:14;;;;;;;;;;;;;;;;;;2216733;59;1434;-73
2022/09/25 09:32:58;;;;;;;;;;;;;;;;;;2215926;66;1310;-73
2022/09/25 09:35:36;;;;;;;;;;;;;;;;;;2214495;58;1937;-73
2022/09/25 09:38:16;;;;;;;;;;;;;;;;;;2216336;66;1296;-73
2022/09/25 09:40:57;;;;;;;;;;;;;;;;;;2214625;58;1743;-73
2022/09/25 09:43:38;;;;;;;;;;;;;;;;;;2216004;58;1880;-73
2022/09/25 09:46:17;;;;;;;;;;;;;;;;;;2216080;59;1697;-72
2022/09/25 09:48:55;;;;;;;;;;;;;;;;;;2215391;58;1744;-73
2022/09/25 09:51:32;;;;;;;;;;;;;;;;;;2215729;66;1223;-74
2022/09/25 09:54:11;;;;;;;;;;;;;;;;;;2216026;58;1289;-73
2022/09/25 09:56:49;;;;;;;;;;;;;;;;;;2215539;66;1946;-73
2022/09/25 09:59:24;;;;;;;;;;;;;;;;;;2215597;58;1733;-73
2022/09/25 10:02:02;;;;;;;;;;;;;;;;;;2216026;66;2776;-73
2022/09/25 10:04:37;;;;;;;;;;;;;;;;;;2215209;66;2678;-73
2022/09/25 10:07:11;;;;;;;;;;;;;;;;;;2215662;66;1258;-74
2022/09/25 10:09:44;;;;;;;;;;;;;;;;;;2215170;58;1714;-73
2022/09/25 10:12:25;;;;;;;;;;;;;;;;;;2216629;59;1247;-73
2022/09/25 10:15:00;;;;;;;;;;;;;;;;;;2214947;58;1981;-74
2022/09/25 10:17:34;;;;;;;;;;;;;;;;;;2215287;66;1198;-74
2022/09/25 10:20:16;;;;;;;;;;;;;;;;;;2215840;66;1187;-73
2022/09/25 10:22:52;;;;;;;;;;;;;;;;;;2216955;59;1160;-73
2022/09/25 10:25:36;;;;;;;;;;;;;;;;;;2216049;58;2373;-73
2022/09/25 10:28:31;;;;;;;;;;;;;;;;;;2215492;58;2290;-74
2022/09/25 10:31:05;;;;;;;;;;;;;;;;;;2214681;59;1818;-73
2022/09/25 10:33:38;;;;;;;;;;;;;;;;;;2215660;58;2287;-74
2022/09/25 10:36:12;;;;;;;;;;;;;;;;;;2216215;58;1949;-74
2022/09/25 10:38:48;;;;;;;;;;;;;;;;;;2216624;58;1169;-75
2022/09/25 10:41:22;;;;;;;;;;;;;;;;;;2215204;58;2240;-74
2022/09/25 10:43:59;;;;;;;;;;;;;;;;;;2213357;58;1653;-74
2022/09/25 10:52:13;;;;;;;;;;;;;;;;;;2214822;58;2068;-75
2022/09/25 10:54:47;;;;;;;;;;;;;;;;;;2214614;59;2107;-74
2022/09/25 10:57:33;;;;;;;;;;;;;;;;;;2215990;58;1974;-74
2022/09/25 11:00:20;;;;;;;;;;;;;;;;;;2216011;66;1260;-74
2022/09/25 11:02:56;;;;;;;;;;;;;;;;;;2215503;66;1140;-74
2022/09/25 11:05:30;;;;;;;;;;;;;;;;;;2214800;58;2169;-74
2022/09/25 11:08:04;;;;;;;;;;;;;;;;;;2216769;58;1324;-74
2022/09/25 11:10:38;;;;;;;;;;;;;;;;;;2215805;58;1166;-74
2022/09/25 11:13:23;;;;;;;;;;;;;;;;;;2215702;59;1714;-74
2022/09/25 11:16:01;;;;;;;;;;;;;;;;;;2215774;59;1933;-74
2022/09/25 11:18:44;;;;;;;;;;;;;;;;;;2216216;58;1305;-75
2022/09/25 11:21:22;;;;;;;;;;;;;;;;;;2215259;66;1240;-75
2022/09/25 11:24:08;;;;;;;;;;;;;;;;;;2216124;59;1126;-74
2022/09/25 11:26:43;;;;;;;;;;;;;;;;;;2215881;59;1204;-75
2022/09/25 11:29:20;;;;;;;;;;;;;;;;;;2215623;66;1207;-75
2022/09/25 11:31:58;;;;;;;;;;;;;;;;;;2214981;58;1631;-74
2022/09/25 11:34:39;;;;;;;;;;;;;;;;;;2215881;58;1356;-74
2022/09/25 11:37:18;;;;;;;;;;;;;;;;;;2215898;59;1927;-75
2022/09/25 11:42:47;;;;;;;;;;;;;;;;;;2215598;59;1216;-75
2022/09/25 11:45:25;;;;;;;;;;;;;;;;;;2215617;58;1796;-75
2022/09/25 11:48:05;;;;;;;;;;;;;;;;;;2215937;59;1515;-75
2022/09/25 11:50:43;;;;;;;;;;;;;;;;;;2216201;59;1275;-75
2022/09/25 11:53:22;;;;;;;;;;;;;;;;;;2216564;66;1179;-75
2022/09/25 11:56:05;;;;;;;;;;;;;;;;;;2216260;66;1983;-75
2022/09/25 11:58:47;;;;;;;;;;;;;;;;;;2215975;66;1171;-75
2022/09/25 12:01:38;;;;;;;;;;;;;;;;;;2216497;66;1214;-75
2022/09/25 12:04:31;;;;;;;;;;;;;;;;;;2216629;58;1785;-75
2022/09/25 12:07:10;;;;;;;;;;;;;;;;;;2216174;66;1258;-75
2022/09/25 12:10:03;;;;;;;;;;;;;;;;;;2215373;59;1290;-75
2022/09/25 12:12:43;;;;;;;;;;;;;;;;;;2215680;66;1151;-75
2022/09/25 12:15:20;;;;;;;;;;;;;;;;;;2215784;59;1234;-75
2022/09/25 12:18:00;;;;;;;;;;;;;;;;;;2215943;66;1929;-74
2022/09/25 12:20:39;;;;;;;;;;;;;;;;;;2216092;66;1215;-75
2022/09/25 12:23:16;;;;;;;;;;;;;;;;;;2216146;66;1271;-74
2022/09/25 12:26:01;;;;;;;;;;;;;;;;;;2215632;58;1327;-75
2022/09/25 12:28:40;;;;;;;;;;;;;;;;;;2215588;66;1265;-75
2022/09/25 12:31:17;;;;;;;;;;;;;;;;;;2215866;66;1239;-74
2022/09/25 12:33:54;;;;;;;;;;;;;;;;;;2215532;66;1098;-75
2022/09/25 12:36:35;;;;;;;;;;;;;;;;;;2216417;58;1937;-74
2022/09/25 12:39:19;;;;;;;;;;;;;;;;;;2216378;66;1099;-75
2022/09/25 12:41:54;;;;;;;;;;;;;;;;;;2216791;59;1207;-75
2022/09/25 12:44:34;;;;;;;;;;;;;;;;;;2215782;59;1167;-75
2022/09/25 12:47:11;;;;;;;;;;;;;;;;;;2216651;58;1302;-75
2022/09/25 12:49:47;;;;;;;;;;;;;;;;;;2215281;66;1166;-75
2022/09/25 12:52:26;;;;;;;;;;;;;;;;;;2216602;59;1203;-75
2022/09/25 12:55:01;;;;;;;;;;;;;;;;;;2216637;59;1652;-76
2022/09/25 12:57:39;;;;;;;;;;;;;;;;;;2216799;66;1933;-75
2022/09/25 13:00:17;;;;;;;;;;;;;;;;;;2216155;58;1265;-74
2022/09/25 13:02:54;;;;;;;;;;;;;;;;;;2216369;58;1309;-75
2022/09/25 13:05:30;;;;;;;;;;;;;;;;;;2215592;59;1703;-74
2022/09/25 13:08:13;;;;;;;;;;;;;;;;;;2215779;59;1227;-75
2022/09/25 13:10:49;;;;;;;;;;;;;;;;;;2214739;58;1072;-75
2022/09/25 13:13:24;;;;;;;;;;;;;;;;;;2215474;66;1238;-75
2022/09/25 13:15:59;;;;;;;;;;;;;;;;;;2215383;66;1979;-76
2022/09/25 13:18:33;;;;;;;;;;;;;;;;;;2215893;66;1176;-76
2022/09/25 13:21:21;;;;;;;;;;;;;;;;;;2215288;59;1400;-75
2022/09/25 13:23:58;;;;;;;;;;;;;;;;;;2214962;59;1369;-75
2022/09/25 13:26:31;;;;;;;;;;;;;;;;;;2215851;66;1272;-75
2022/09/25 13:29:08;;;;;;;;;;;;;;;;;;2215943;66;1228;-75
2022/09/25 13:31:43;;;;;;;;;;;;;;;;;;2216680;66;1093;-75
2022/09/25 13:34:18;;;;;;;;;;;;;;;;;;2217276;66;1293;-74
2022/09/25 13:36:54;;;;;;;;;;;;;;;;;;2215434;58;1944;-75
2022/09/25 13:42:28;;;;;;;;;;;;;;;;;;2211364;58;1623;-75
2022/09/25 13:45:09;;;;;;;;;;;;;;;;;;2216468;59;1148;-75
2022/09/25 13:47:52;;;;;;;;;;;;;;;;;;2216075;58;1257;-75
2022/09/25 13:50:33;;;;;;;;;;;;;;;;;;2216916;66;1260;-75
2022/09/25 13:53:24;;;;;;;;;;;;;;;;;;2216835;66;1250;-75
2022/09/25 13:56:27;;;;;;;;;;;;;;;;;;2216543;66;1214;-75
2022/09/25 13:59:18;;;;;;;;;;;;;;;;;;2216944;66;1195;-76
2022/09/25 14:01:55;;;;;;;;;;;;;;;;;;2213497;59;1565;-75
2022/09/25 14:04:37;;;;;;;;;;;;;;;;;;2216931;66;1115;-75
2022/09/25 14:07:17;;;;;;;;;;;;;;;;;;2216875;66;1256;-75
2022/09/25 14:09:52;;;;;;;;;;;;;;;;;;2215603;58;1587;-75
2022/09/25 14:12:29;;;;;;;;;;;;;;;;;;2217154;66;1127;-75
2022/09/25 14:15:04;;;;;;;;;;;;;;;;;;2217002;66;1223;-75
2022/09/25 14:17:43;;;;;;;;;;;;;;;;;;2216221;66;1990;-75
2022/09/25 14:20:28;;;;;;;;;;;;;;;;;;2216439;58;1234;-75
2022/09/25 14:23:04;;;;;;;;;;;;;;;;;;2216771;66;1197;-75
2022/09/25 14:25:41;;;;;;;;;;;;;;;;;;2216907;66;1248;-75
2022/09/25 14:28:24;;;;;;;;;;;;;;;;;;2217432;66;1270;-75
2022/09/25 14:31:19;;;;;;;;;;;;;;;;;;2216363;66;1156;-76
2022/09/25 14:34:08;;;;;;;;;;;;;;;;;;2215342;66;2150;-75
2022/09/25 14:36:49;;;;;;;;;;;;;;;;;;2217333;58;1933;-76
2022/09/25 14:39:29;;;;;;;;;;;;;;;;;;2215877;59;1121;-75
2022/09/25 14:42:12;;;;;;;;;;;;;;;;;;2216073;58;1594;-75
2022/09/25 14:44:56;;;;;;;;;;;;;;;;;;2217203;66;1143;-75
2022/09/25 14:47:32;;;;;;;;;;;;;;;;;;2217098;58;1263;-75
2022/09/25 14:50:18;;;;;;;;;;;;;;;;;;2216445;66;1216;-75
2022/09/25 14:52:54;;;;;;;;;;;;;;;;;;2216724;59;1271;-75
2022/09/25 14:55:27;;;;;;;;;;;;;;;;;;2216965;66;1086;-75
2022/09/25 14:58:00;;;;;;;;;;;;;;;;;;2216888;59;1932;-75
2022/09/25 15:00:34;;;;;;;;;;;;;;;;;;2213193;66;1406;-75
2022/09/25 15:03:13;;;;;;;;;;;;;;;;;;2214632;59;1278;-75
2022/09/25 15:05:52;;;;;;;;;;;;;;;;;;2216740;66;1259;-75
2022/09/25 15:08:31;;;;;;;;;;;;;;;;;;2216800;66;1053;-75
2022/09/25 15:11:10;;;;;;;;;;;;;;;;;;2217492;58;1255;-75
2022/09/25 15:13:44;;;;;;;;;;;;;;;;;;2216437;59;1731;-74
2022/09/25 15:19:12;;;;;;;;;;;;;;;;;;2216500;66;1036;-74
2022/09/25 15:21:50;;;;;;;;;;;;;;;;;;2216036;58;1273;-74
2022/09/25 15:24:26;;;;;;;;;;;;;;;;;;2216728;66;1042;-75
2022/09/25 15:27:02;;;;;;;;;;;;;;;;;;2216876;66;1259;-75
2022/09/25 15:29:37;;;;;;;;;;;;;;;;;;2216642;66;1096;-75
2022/09/25 15:32:17;;;;;;;;;;;;;;;;;;2216468;66;1114;-73
2022/09/25 15:34:50;;;;;;;;;;;;;;;;;;2217177;66;1116;-74
2022/09/25 15:37:28;;;;;;;;;;;;;;;;;;2216389;58;1932;-75
2022/09/25 15:40:02;;;;;;;;;;;;;;;;;;2216619;66;1077;-74
2022/09/25 15:42:36;;;;;;;;;;;;;;;;;;2216915;59;1404;-75
2022/09/25 15:45:29;;;;;;;;;;;;;;;;;;2216592;58;1647;-74
2022/09/25 15:48:03;;;;;;;;;;;;;;;;;;2217310;58;1280;-73
2022/09/25 15:50:37;;;;;;;;;;;;;;;;;;2217099;66;1123;-74
2022/09/25 15:53:19;;;;;;;;;;;;;;;;;;2216292;66;1242;-74
2022/09/25 15:56:02;;;;;;;;;;;;;;;;;;2216288;66;1222;-73
2022/09/25 15:58:37;;;;;;;;;;;;;;;;;;2216423;66;2019;-73
2022/09/25 16:06:52;;;;;;;;;;;;;;;;;;2215883;66;1229;-74
2022/09/25 16:09:30;;;;;;;;;;;;;;;;;;2216970;59;1021;-73
2022/09/25 16:12:28;;;;;;;;;;;;;;;;;;2216414;66;1219;-74
2022/09/25 16:15:04;;;;;;;;;;;;;;;;;;2212451;58;1736;-74
2022/09/25 16:17:41;;;;;;;;;;;;;;;;;;2215258;66;1941;-75
2022/09/25 16:20:32;;;;;;;;;;;;;;;;;;2216189;59;1282;-75
2022/09/25 16:23:07;;;;;;;;;;;;;;;;;;2215494;58;1445;-74
2022/09/25 16:25:45;;;;;;;;;;;;;;;;;;2215959;66;1117;-74
2022/09/25 16:28:19;;;;;;;;;;;;;;;;;;2215926;66;1118;-74
2022/09/25 16:30:56;;;;;;;;;;;;;;;;;;2215460;66;1160;-75
2022/09/25 16:33:31;;;;;;;;;;;;;;;;;;2215787;66;1117;-74
2022/09/25 16:36:07;;;;;;;;;;;;;;;;;;2216452;59;1239;-74
2022/09/25 16:38:40;;;;;;;;;;;;;;;;;;2215548;66;1979;-75
2022/09/25 16:41:21;;;;;;;;;;;;;;;;;;2216163;66;1266;-74
2022/09/25 16:44:06;;;;;;;;;;;;;;;;;;2211482;59;1418;-74
2022/09/25 16:57:50;;;;;;;;;;;;;;;;;;2286275;53;1977;-74
2022/09/25 17:00:24;;;;;;;;;;;;;;;;;;2213307;67;1163;-74
2022/09/25 17:02:58;;;;;;;;;;;;;;;;;;2213600;59;1194;-74
2022/09/25 17:05:32;;;;;;;;;;;;;;;;;;2213595;59;1423;-73
2022/09/25 17:08:13;;;;;;;;;;;;;;;;;;2215259;66;1255;-73
2022/09/25 17:10:48;;;;;;;;;;;;;;;;;;2214959;59;1231;-74
2022/09/25 17:13:29;;;;;;;;;;;;;;;;;;2215346;59;1222;-74
2022/09/25 17:16:03;;;;;;;;;;;;;;;;;;2215527;59;1849;-74
2022/09/25 17:18:37;;;;;;;;;;;;;;;;;;2215408;66;1987;-74
2022/09/25 17:21:13;;;;;;;;;;;;;;;;;;2215739;66;1277;-74
2022/09/25 17:23:47;;;;;;;;;;;;;;;;;;2215152;66;1235;-74
2022/09/25 17:26:22;;;;;;;;;;;;;;;;;;2215403;58;1337;-74
2022/09/25 17:28:57;;;;;;;;;;;;;;;;;;2215218;66;1135;-74
2022/09/25 17:31:32;;;;;;;;;;;;;;;;;;2215610;66;1091;-74
2022/09/25 17:34:09;;;;;;;;;;;;;;;;;;2216010;66;1278;-74
2022/09/25 17:36:42;;;;;;;;;;;;;;;;;;2212986;59;1406;-74
2022/09/25 17:39:15;;;;;;;;;;;;;;;;;;2215541;66;1928;-73
2022/09/25 17:41:49;;;;;;;;;;;;;;;;;;2216919;58;1258;-73
2022/09/25 17:44:26;;;;;;;;;;;;;;;;;;2216461;59;1108;-73
2022/09/25 17:47:00;;;;;;;;;;;;;;;;;;2216312;59;1724;-74
2022/09/25 17:49:33;;;;;;;;;;;;;;;;;;2216182;66;1166;-74
2022/09/25 17:52:06;;;;;;;;;;;;;;;;;;2216646;66;1333;-74
2022/09/25 17:54:39;;;;;;;;;;;;;;;;;;2216099;66;1140;-73
2022/09/25 17:57:13;;;;;;;;;;;;;;;;;;2214455;58;4669;-74
2022/09/25 17:59:48;;;;;;;;;;;;;;;;;;2214657;58;1925;-73
2022/09/25 18:02:22;;;;;;;;;;;;;;;;;;2215414;58;1970;-73
2022/09/25 18:04:55;;;;;;;;;;;;;;;;;;2217042;58;1276;-74
2022/09/25 18:07:28;;;;;;;;;;;;;;;;;;2215548;58;1761;-74
2022/09/25 18:10:01;;;;;;;;;;;;;;;;;;2216312;58;1277;-73
2022/09/25 18:12:34;;;;;;;;;;;;;;;;;;2214803;58;1710;-74
2022/09/25 18:15:11;;;;;;;;;;;;;;;;;;2216991;59;1257;-74
2022/09/25 21:32:26;;;;;;;;;;;;;;;;;;2212251;59;1177;-76
2022/09/25 21:34:59;;;;;;;;;;;;;;;;;;2215962;59;1194;-76
2022/09/25 21:37:32;;;;;;;;;;;;;;;;;;2216408;58;1193;-75
2022/09/25 21:40:05;;;;;;;;;;;;;;;;;;2215302;59;1936;-75
2022/09/25 21:42:39;;;;;;;;;;;;;;;;;;2216779;58;1102;-76
2022/09/25 21:56:03;;;;;;;;;;;;;;;;;;2288553;53;3591;-76
2022/09/25 21:58:38;;;;;;;;;;;;;;;;;;2210556;67;1992;-76
2022/09/25 22:01:12;;;;;;;;;;;;;;;;;;2211247;59;2282;-76
2022/09/25 22:03:46;;;;;;;;;;;;;;;;;;2212721;59;2826;-76
2022/09/25 22:06:21;;;;;;;;;;;;;;;;;;2208694;59;2189;-75
2022/09/25 22:08:55;;;;;;;;;;;;;;;;;;2209039;59;1231;-76
2022/09/25 22:11:31;;;;;;;;;;;;;;;;;;2210140;59;1192;-76
2022/09/25 22:14:05;;;;;;;;;;;;;;;;;;2211532;59;1478;-76
2022/09/25 22:16:41;;;;;;;;;;;;;;;;;;2211377;67;1194;-76
2022/09/25 22:19:16;;;;;;;;;;;;;;;;;;2210866;67;1984;-76
2022/09/25 22:21:50;;;;;;;;;;;;;;;;;;2211601;67;1263;-76
2022/09/25 22:24:23;;;;;;;;;;;;;;;;;;2211655;59;1243;-76
2022/09/25 22:26:59;;;;;;;;;;;;;;;;;;2209541;59;1698;-76
2022/09/25 22:29:33;;;;;;;;;;;;;;;;;;2210042;59;1026;-76
2022/09/25 22:32:06;;;;;;;;;;;;;;;;;;2211614;59;1158;-76
2022/09/25 22:34:39;;;;;;;;;;;;;;;;;;2210678;60;1192;-76
2022/09/25 22:37:12;;;;;;;;;;;;;;;;;;2211085;59;1339;-76
2022/09/25 22:39:45;;;;;;;;;;;;;;;;;;2215577;59;1936;-76
2022/09/25 22:42:21;;;;;;;;;;;;;;;;;;2215561;66;1278;-76
2022/09/25 22:44:54;;;;;;;;;;;;;;;;;;2215772;66;1331;-77
2022/09/25 22:47:28;;;;;;;;;;;;;;;;;;2215154;59;1311;-76
2022/09/25 22:50:01;;;;;;;;;;;;;;;;;;2214322;66;1177;-76
2022/09/25 22:52:35;;;;;;;;;;;;;;;;;;2215585;66;1081;-76
2022/09/25 22:55:08;;;;;;;;;;;;;;;;;;2215218;59;1274;-76
2022/09/25 22:57:44;;;;;;;;;;;;;;;;;;2214936;59;2234;-75
2022/09/25 23:00:17;;;;;;;;;;;;;;;;;;2214354;59;2264;-76
2022/09/25 23:02:50;;;;;;;;;;;;;;;;;;2214271;59;1577;-76
2022/09/25 23:05:23;;;;;;;;;;;;;;;;;;2213584;66;1192;-76
2022/09/25 23:07:56;;;;;;;;;;;;;;;;;;2213801;67;1109;-76
2022/09/25 23:10:30;;;;;;;;;;;;;;;;;;2214040;59;1207;-76
2022/09/25 23:13:06;;;;;;;;;;;;;;;;;;2214373;66;1172;-76
2022/09/25 23:15:39;;;;;;;;;;;;;;;;;;2214615;66;1189;-75
2022/09/25 23:18:12;;;;;;;;;;;;;;;;;;2214559;59;2119;-76
2022/09/25 23:20:46;;;;;;;;;;;;;;;;;;2214097;59;2620;-75
2022/09/25 23:23:19;;;;;;;;;;;;;;;;;;2213650;59;2222;-75
2022/09/25 23:25:52;;;;;;;;;;;;;;;;;;2214649;59;2228;-75
2022/09/25 23:28:28;;;;;;;;;;;;;;;;;;2214685;59;2131;-75
2022/09/25 23:31:06;;;;;;;;;;;;;;;;;;2214066;59;2314;-76
2022/09/25 23:33:39;;;;;;;;;;;;;;;;;;2214375;59;2277;-76
2022/09/25 23:36:15;;;;;;;;;;;;;;;;;;2214508;59;2275;-75
2022/09/25 23:38:48;;;;;;;;;;;;;;;;;;2214902;59;2331;-75
2022/09/25 23:41:22;;;;;;;;;;;;;;;;;;2214859;66;1168;-75
2022/09/25 23:43:59;;;;;;;;;;;;;;;;;;2214573;59;2292;-76
2022/09/25 23:46:33;;;;;;;;;;;;;;;;;;2213998;59;2256;-76
2022/09/25 23:49:06;;;;;;;;;;;;;;;;;;2213816;59;2083;-75
2022/09/25 23:51:39;;;;;;;;;;;;;;;;;;2210593;59;2270;-75
2022/09/25 23:54:12;;;;;;;;;;;;;;;;;;2214313;59;2178;-76
2022/09/25 23:56:46;;;;;;;;;;;;;;;;;;2214686;59;2347;-75
2022/09/25 23:59:22;;;;;;;;;;;;;;;;;;2214618;59;2153;-76
